Time;durP1;ratioP1;P1;durP2;ratioP2;P2;SDS_P1;SDS_P2;PMS_P1;PMS_P2;Temp;Humidity;BMP_temperature;BMP_pressure;BME280_temperature;BME280_humidity;BME280_pressure;Samples;Min_cycle;Max_cycle;Signal;HPM_P1;HPM_P2
2022/03/02 00:01:42;;;;;;;31.17;10.88;;;7.00;99.90;;;;;;5059576;28;20021;-76
2022/03/02 00:04:09;;;;;;;26.13;10.77;;;7.10;99.90;;;;;;5058597;28;20021;-76
2022/03/02 00:06:34;;;;;;;36.05;12.05;;;7.10;99.90;;;;;;5046127;28;20021;-75
2022/03/02 00:09:01;;;;;;;28.30;12.38;;;7.20;99.90;;;;;;5058100;28;20028;-76
2022/03/02 00:11:27;;;;;;;19.63;9.75;;;7.20;99.90;;;;;;5059451;28;20021;-75
2022/03/02 00:13:54;;;;;;;29.10;13.00;;;7.20;99.90;;;;;;5058271;28;20032;-75
2022/03/02 00:16:22;;;;;;;26.02;11.25;;;7.20;99.90;;;;;;5059504;28;20593;-75
2022/03/02 00:18:49;;;;;;;31.52;9.95;;;7.20;99.90;;;;;;5059060;28;20056;-75
2022/03/02 00:21:15;;;;;;;24.05;11.30;;;7.30;99.90;;;;;;5058786;28;20440;-73
2022/03/02 00:23:41;;;;;;;40.88;11.98;;;7.30;99.90;;;;;;5057816;28;20032;-74
2022/03/02 00:26:07;;;;;;;24.45;11.77;;;7.30;99.90;;;;;;5058855;28;20013;-74
2022/03/02 00:28:33;;;;;;;30.73;10.75;;;7.30;99.90;;;;;;5058842;28;20382;-74
2022/03/02 00:30:59;;;;;;;23.45;10.20;;;7.30;99.90;;;;;;5059228;28;20021;-74
2022/03/02 00:33:25;;;;;;;36.55;10.55;;;7.30;99.90;;;;;;5059084;28;20096;-74
2022/03/02 00:35:51;;;;;;;23.30;9.95;;;7.30;99.90;;;;;;5057597;28;20025;-74
2022/03/02 00:38:17;;;;;;;30.08;11.00;;;7.30;99.90;;;;;;5064533;28;20055;-74
2022/03/02 00:40:43;;;;;;;25.25;10.68;;;7.30;99.90;;;;;;5060934;28;20044;-75
2022/03/02 00:43:10;;;;;;;25.10;10.88;;;7.30;99.90;;;;;;5061003;28;20028;-74
2022/03/02 00:45:36;;;;;;;28.27;10.50;;;7.30;99.90;;;;;;5059723;28;20017;-76
2022/03/02 00:48:04;;;;;;;23.98;10.65;;;7.20;99.90;;;;;;5060725;28;20024;-74
2022/03/02 00:50:31;;;;;;;32.45;10.30;;;7.30;99.90;;;;;;5078518;28;20044;-74
2022/03/02 00:52:57;;;;;;;30.20;11.30;;;7.30;99.90;;;;;;5060476;28;20017;-74
2022/03/02 00:55:23;;;;;;;27.08;10.45;;;7.20;99.90;;;;;;5060850;28;20025;-77
2022/03/02 00:57:50;;;;;;;31.55;10.68;;;7.30;99.90;;;;;;5078357;28;20484;-75
2022/03/02 01:00:16;;;;;;;21.35;9.38;;;7.30;99.90;;;;;;5060538;28;20044;-76
2022/03/02 01:02:43;;;;;;;29.20;11.10;;;7.50;99.90;;;;;;5078641;28;20051;-75
2022/03/02 01:05:09;;;;;;;27.85;9.55;;;7.50;99.90;;;;;;5060408;28;20119;-76
2022/03/02 01:07:36;;;;;;;25.70;9.95;;;7.50;99.90;;;;;;5059982;28;20103;-75
2022/03/02 01:10:04;;;;;;;33.40;11.68;;;7.50;99.90;;;;;;5078353;28;20496;-75
2022/03/02 01:12:30;;;;;;;32.65;12.05;;;7.50;99.90;;;;;;5060020;28;20037;-75
2022/03/02 01:14:56;;;;;;;28.85;11.77;;;7.50;99.90;;;;;;5060496;28;20362;-75
2022/03/02 01:17:23;;;;;;;27.67;11.55;;;7.50;99.90;;;;;;5078082;28;20027;-75
2022/03/02 01:19:49;;;;;;;31.65;10.63;;;7.50;99.90;;;;;;5078082;28;20101;-75
2022/03/02 01:22:16;;;;;;;29.92;10.70;;;7.60;99.90;;;;;;5076702;28;20031;-75
2022/03/02 01:24:43;;;;;;;31.35;10.38;;;7.60;99.90;;;;;;5059959;28;20024;-75
2022/03/02 01:27:09;;;;;;;39.60;12.18;;;7.60;99.90;;;;;;5059927;28;20028;-75
2022/03/02 01:29:36;;;;;;;34.97;9.88;;;7.60;99.90;;;;;;5060170;28;20051;-75
2022/03/02 01:32:05;;;;;;;29.13;10.35;;;7.60;99.90;;;;;;5077984;28;20082;-75
2022/03/02 01:34:30;;;;;;;26.40;10.27;;;7.60;99.90;;;;;;5077815;28;20020;-76
2022/03/02 01:36:56;;;;;;;25.35;10.40;;;7.60;99.90;;;;;;5076462;28;20036;-76
2022/03/02 01:39:22;;;;;;;20.33;9.38;;;7.60;99.90;;;;;;5056329;28;20053;-75
2022/03/02 01:41:48;;;;;;;20.83;10.27;;;7.60;99.90;;;;;;5057556;28;20036;-75
2022/03/02 01:44:15;;;;;;;23.42;10.32;;;7.50;99.90;;;;;;5057661;28;20481;-75
2022/03/02 01:46:43;;;;;;;23.75;8.88;;;7.60;99.90;;;;;;5056145;28;20167;-75
2022/03/02 01:49:09;;;;;;;27.17;9.93;;;7.60;99.90;;;;;;5057633;28;20041;-75
2022/03/02 01:51:35;;;;;;;28.98;9.88;;;7.60;99.90;;;;;;5055999;28;20083;-75
2022/03/02 01:54:02;;;;;;;31.45;10.70;;;7.60;99.90;;;;;;5056587;28;20021;-75
2022/03/02 01:56:28;;;;;;;31.10;11.50;;;7.60;99.90;;;;;;5056001;28;20044;-75
2022/03/02 01:58:54;;;;;;;29.38;11.60;;;7.70;99.90;;;;;;5057460;28;20108;-76
2022/03/02 02:01:20;;;;;;;25.02;11.55;;;7.70;99.90;;;;;;5051786;28;20048;-75
2022/03/02 02:03:47;;;;;;;29.25;11.75;;;7.70;99.90;;;;;;5056137;28;20499;-75
2022/03/02 02:06:13;;;;;;;29.25;10.55;;;7.60;99.90;;;;;;5056928;28;20585;-75
2022/03/02 02:08:40;;;;;;;30.15;11.18;;;7.60;99.90;;;;;;5056009;28;20120;-75
2022/03/02 02:11:08;;;;;;;25.17;11.18;;;7.60;99.90;;;;;;5057223;28;20463;-75
2022/03/02 02:13:34;;;;;;;29.50;10.48;;;7.70;99.90;;;;;;5055757;28;20025;-75
2022/03/02 02:16:02;;;;;;;29.25;10.93;;;7.80;99.90;;;;;;5055828;28;20051;-76
2022/03/02 02:18:28;;;;;;;32.47;11.35;;;7.90;99.90;;;;;;5055918;28;20025;-76
2022/03/02 02:20:54;;;;;;;40.88;10.95;;;7.90;99.90;;;;;;5055699;28;20070;-75
2022/03/02 02:23:20;;;;;;;33.10;11.05;;;8.00;99.90;;;;;;5057254;28;20024;-76
2022/03/02 02:25:46;;;;;;;28.02;10.18;;;7.90;99.90;;;;;;5056915;28;20027;-75
2022/03/02 02:28:22;;;;;;;27.35;10.00;;;8.00;99.90;;;;;;5057135;28;20100;-76
2022/03/02 02:30:50;;;;;;;23.65;9.88;;;7.90;99.90;;;;;;5056843;28;20074;-76
2022/03/02 02:33:16;;;;;;;26.15;10.15;;;8.00;99.90;;;;;;5057034;28;20049;-75
2022/03/02 02:35:42;;;;;;;25.08;10.35;;;8.00;99.90;;;;;;5057069;28;20021;-76
2022/03/02 02:38:09;;;;;;;25.90;9.65;;;8.00;99.90;;;;;;5061413;28;20055;-76
2022/03/02 02:40:36;;;;;;;22.73;9.88;;;8.00;99.90;;;;;;5077089;28;20043;-76
2022/03/02 02:43:05;;;;;;;25.63;10.10;;;8.00;99.90;;;;;;5076749;28;20028;-75
2022/03/02 02:45:31;;;;;;;31.08;10.90;;;7.90;99.90;;;;;;5077038;28;20059;-76
2022/03/02 02:47:58;;;;;;;22.27;10.15;;;7.90;99.90;;;;;;5059114;28;20024;-76
2022/03/02 02:50:30;;;;;;;29.55;10.20;;;7.90;99.90;;;;;;5080894;28;20017;-76
2022/03/02 02:52:58;;;;;;;26.67;10.25;;;7.90;99.90;;;;;;5080741;28;20440;-75
2022/03/02 02:55:26;;;;;;;23.65;9.68;;;8.00;99.90;;;;;;5080905;28;20059;-75
2022/03/02 02:57:53;;;;;;;26.10;10.70;;;8.00;99.90;;;;;;5080544;28;20039;-76
2022/03/02 03:00:21;;;;;;;28.55;9.55;;;8.00;99.90;;;;;;5080819;28;20020;-75
2022/03/02 03:02:49;;;;;;;24.85;10.63;;;8.00;99.90;;;;;;5062680;28;20028;-75
2022/03/02 03:05:19;;;;;;;21.55;9.90;;;8.00;99.90;;;;;;5080683;28;20021;-75
2022/03/02 03:07:46;;;;;;;20.85;10.30;;;8.00;99.90;;;;;;5062325;28;20032;-75
2022/03/02 03:10:13;;;;;;;23.92;11.10;;;8.00;99.90;;;;;;5062662;28;20020;-75
2022/03/02 03:12:40;;;;;;;29.38;10.13;;;8.00;99.90;;;;;;5080322;28;20460;-75
2022/03/02 03:15:09;;;;;;;26.58;10.98;;;8.00;99.90;;;;;;5080593;28;20020;-75
2022/03/02 03:17:35;;;;;;;19.10;10.27;;;7.90;99.90;;;;;;5080250;28;20052;-75
2022/03/02 03:20:02;;;;;;;17.35;10.30;;;7.90;99.90;;;;;;5080658;28;20082;-75
2022/03/02 03:22:28;;;;;;;23.00;11.25;;;7.90;99.90;;;;;;5080085;28;20107;-75
2022/03/02 03:24:54;;;;;;;31.70;11.02;;;7.90;99.90;;;;;;5080341;28;20059;-76
2022/03/02 03:27:20;;;;;;;24.35;10.90;;;7.90;99.90;;;;;;5079958;28;20542;-76
2022/03/02 03:29:45;;;;;;;38.80;11.25;;;7.90;99.90;;;;;;5080415;28;20027;-75
2022/03/02 03:32:13;;;;;;;23.77;10.55;;;8.00;99.90;;;;;;5062127;28;20021;-76
2022/03/02 03:34:38;;;;;;;31.52;11.00;;;8.10;99.90;;;;;;5061943;28;20397;-75
2022/03/02 03:37:04;;;;;;;21.90;9.52;;;8.10;99.90;;;;;;5078378;28;20020;-76
2022/03/02 03:39:30;;;;;;;22.75;10.20;;;8.10;99.90;;;;;;5061891;28;20075;-76
2022/03/02 03:41:56;;;;;;;30.27;9.82;;;8.10;99.90;;;;;;5061783;28;20029;-76
2022/03/02 03:44:25;;;;;;;26.63;10.20;;;8.00;99.90;;;;;;5080044;28;20050;-76
2022/03/02 03:46:51;;;;;;;20.70;9.90;;;8.00;99.90;;;;;;5062034;28;20055;-76
2022/03/02 03:49:17;;;;;;;21.75;9.60;;;8.00;99.90;;;;;;5079982;28;20047;-76
2022/03/02 03:51:43;;;;;;;30.45;11.10;;;8.00;99.90;;;;;;5061643;28;20032;-76
2022/03/02 03:54:10;;;;;;;22.42;11.13;;;7.90;99.90;;;;;;5062010;28;20028;-76
2022/03/02 03:56:36;;;;;;;31.75;10.70;;;7.90;99.90;;;;;;5061509;28;20561;-76
2022/03/02 03:59:03;;;;;;;23.02;10.88;;;7.90;99.90;;;;;;5061760;28;20071;-76
2022/03/02 04:01:29;;;;;;;29.75;10.05;;;7.80;99.90;;;;;;5078649;28;20033;-75
2022/03/02 04:03:55;;;;;;;33.28;11.05;;;7.90;99.90;;;;;;5061544;28;20028;-75
2022/03/02 04:06:21;;;;;;;21.83;9.95;;;8.00;99.90;;;;;;5061437;28;20035;-75
2022/03/02 04:08:47;;;;;;;27.35;10.05;;;8.00;99.90;;;;;;5061570;28;20020;-76
2022/03/02 04:11:13;;;;;;;24.25;9.55;;;8.00;99.90;;;;;;5060977;28;20078;-75
2022/03/02 04:13:39;;;;;;;20.85;10.68;;;7.90;99.90;;;;;;5079694;28;20028;-75
2022/03/02 04:16:05;;;;;;;22.20;10.63;;;7.90;99.90;;;;;;5079374;28;20036;-75
2022/03/02 04:18:32;;;;;;;24.88;9.93;;;7.90;99.90;;;;;;5079441;28;20546;-75
2022/03/02 04:20:58;;;;;;;39.25;10.48;;;7.80;99.90;;;;;;5079017;28;20100;-75
2022/03/02 04:23:25;;;;;;;24.23;10.95;;;7.90;99.90;;;;;;5079151;28;20063;-76
2022/03/02 04:25:51;;;;;;;22.50;10.15;;;7.90;99.90;;;;;;5061257;28;20024;-75
2022/03/02 04:28:17;;;;;;;29.02;10.15;;;7.90;99.90;;;;;;5079091;28;20103;-75
2022/03/02 04:30:44;;;;;;;27.52;10.57;;;7.80;99.90;;;;;;5078896;28;20067;-75
2022/03/02 04:33:10;;;;;;;23.98;10.10;;;7.90;99.90;;;;;;5061035;28;20024;-75
2022/03/02 04:35:36;;;;;;;22.05;11.50;;;8.00;99.90;;;;;;5078846;28;20143;-76
2022/03/02 04:38:03;;;;;;;20.85;11.45;;;8.00;99.90;;;;;;5078785;28;20056;-75
2022/03/02 04:40:29;;;;;;;22.42;10.40;;;8.00;99.90;;;;;;5078957;28;20056;-75
2022/03/02 04:42:56;;;;;;;25.27;10.88;;;8.00;99.90;;;;;;5078962;28;20060;-75
2022/03/02 04:45:30;;;;;;;30.02;10.00;;;8.00;99.90;;;;;;5078832;28;20020;-76
2022/03/02 04:48:00;;;;;;;25.17;10.30;;;8.10;99.90;;;;;;5078647;28;20025;-76
2022/03/02 04:50:27;;;;;;;31.30;10.90;;;8.10;99.90;;;;;;5078788;28;20121;-75
2022/03/02 04:52:55;;;;;;;25.50;11.65;;;8.10;99.90;;;;;;5060302;28;20028;-75
2022/03/02 04:55:21;;;;;;;21.98;9.75;;;8.00;99.90;;;;;;5078713;28;20023;-75
2022/03/02 04:57:51;;;;;;;22.90;10.23;;;8.00;99.90;;;;;;5078497;28;20115;-75
2022/03/02 05:00:23;;;;;;;28.17;11.10;;;8.00;99.90;;;;;;5078695;28;20046;-75
2022/03/02 05:02:50;;;;;;;26.33;10.32;;;8.10;99.90;;;;;;5060667;28;20194;-75
2022/03/02 05:05:17;;;;;;;28.35;11.07;;;8.10;99.90;;;;;;5077267;28;20024;-75
2022/03/02 05:07:44;;;;;;;19.15;10.27;;;8.10;99.90;;;;;;5077956;28;20028;-75
2022/03/02 05:10:13;;;;;;;48.33;11.85;;;8.10;99.90;;;;;;5078445;28;20095;-75
2022/03/02 05:12:39;;;;;;;20.42;10.25;;;8.20;99.90;;;;;;5078230;28;20025;-75
2022/03/02 05:15:07;;;;;;;33.72;12.52;;;8.20;99.90;;;;;;5060344;28;20020;-76
2022/03/02 05:17:33;;;;;;;27.30;11.93;;;8.20;99.90;;;;;;5078162;28;20025;-76
2022/03/02 05:19:59;;;;;;;25.75;10.98;;;8.20;99.90;;;;;;5078166;28;20060;-76
2022/03/02 05:22:25;;;;;;;27.10;10.48;;;8.20;99.90;;;;;;5077836;28;20024;-76
2022/03/02 05:24:51;;;;;;;23.27;11.27;;;8.20;99.90;;;;;;5060225;28;20515;-75
2022/03/02 05:27:17;;;;;;;28.67;11.60;;;8.20;99.90;;;;;;5078018;28;20560;-76
2022/03/02 05:29:43;;;;;;;21.20;9.82;;;8.30;99.90;;;;;;5078017;28;20024;-75
2022/03/02 05:32:09;;;;;;;32.58;11.27;;;8.30;99.90;;;;;;5052243;28;20036;-76
2022/03/02 05:34:35;;;;;;;25.58;11.10;;;8.30;99.90;;;;;;5074430;28;20417;-76
2022/03/02 05:37:02;;;;;;;21.50;10.95;;;8.30;99.90;;;;;;5059621;28;20028;-75
2022/03/02 05:39:29;;;;;;;23.13;11.70;;;8.40;99.90;;;;;;5077621;28;20048;-75
2022/03/02 05:41:55;;;;;;;38.97;11.77;;;8.40;99.90;;;;;;5059465;28;20435;-76
2022/03/02 05:44:21;;;;;;;31.05;13.02;;;8.40;99.90;;;;;;5078079;28;20358;-75
2022/03/02 05:46:48;;;;;;;25.45;12.48;;;8.30;99.90;;;;;;5059658;28;20647;-76
2022/03/02 05:49:14;;;;;;;22.98;11.80;;;8.40;99.90;;;;;;5077778;28;20025;-76
2022/03/02 05:51:41;;;;;;;20.73;11.45;;;8.40;99.90;;;;;;5059650;28;20031;-75
2022/03/02 05:54:08;;;;;;;33.75;12.73;;;8.40;99.90;;;;;;5077723;28;20020;-76
2022/03/02 05:56:37;;;;;;;21.52;11.35;;;8.40;99.90;;;;;;5059680;28;20059;-75
2022/03/02 05:59:03;;;;;;;27.27;13.23;;;8.50;99.90;;;;;;5059959;28;20032;-76
2022/03/02 06:01:29;;;;;;;23.73;12.00;;;8.50;99.90;;;;;;5077586;28;20067;-75
2022/03/02 06:03:55;;;;;;;29.00;12.95;;;8.50;99.90;;;;;;5077640;28;20047;-76
2022/03/02 06:06:21;;;;;;;29.75;10.95;;;8.50;99.90;;;;;;5077155;28;20453;-76
2022/03/02 06:08:47;;;;;;;25.40;11.27;;;8.50;99.90;;;;;;5077774;28;20020;-76
2022/03/02 06:11:13;;;;;;;23.17;11.55;;;8.50;99.90;;;;;;5077557;28;20428;-75
2022/03/02 06:13:39;;;;;;;29.42;13.23;;;8.50;99.90;;;;;;5059704;28;20020;-76
2022/03/02 06:16:06;;;;;;;26.10;12.30;;;8.60;99.90;;;;;;5077343;28;20044;-76
2022/03/02 06:18:32;;;;;;;36.88;11.82;;;8.50;99.90;;;;;;5077559;28;20024;-76
2022/03/02 06:21:00;;;;;;;26.25;11.90;;;8.60;99.90;;;;;;5059020;28;20289;-76
2022/03/02 06:23:30;;;;;;;21.77;11.27;;;8.60;99.90;;;;;;5058753;28;20024;-76
2022/03/02 06:25:57;;;;;;;29.65;11.38;;;8.60;99.90;;;;;;5059165;28;20017;-76
2022/03/02 06:28:24;;;;;;;29.40;12.15;;;8.60;99.90;;;;;;5059243;28;20024;-76
2022/03/02 06:30:50;;;;;;;30.85;11.63;;;8.60;99.90;;;;;;5062778;28;20056;-75
2022/03/02 06:33:18;;;;;;;17.58;10.20;;;8.70;99.90;;;;;;5059019;28;20020;-75
2022/03/02 06:35:50;;;;;;;17.00;11.75;;;8.60;99.90;;;;;;5076755;28;20385;-76
2022/03/02 06:38:17;;;;;;;19.70;11.18;;;8.60;99.90;;;;;;5076778;28;20123;-75
2022/03/02 06:41:03;;;;;;;22.23;11.63;;;8.60;99.90;;;;;;5077064;28;20024;-75
2022/03/02 06:43:36;;;;;;;20.48;11.02;;;8.60;99.90;;;;;;5058906;28;20519;-75
2022/03/02 06:46:09;;;;;;;20.77;11.18;;;8.60;99.90;;;;;;5076942;28;20016;-76
2022/03/02 06:48:37;;;;;;;18.27;10.63;;;8.60;99.90;;;;;;5076980;28;20016;-75
2022/03/02 06:51:06;;;;;;;26.35;10.75;;;8.60;99.90;;;;;;5076731;28;20024;-76
2022/03/02 06:53:37;;;;;;;24.20;11.00;;;8.60;99.90;;;;;;5076901;28;20017;-75
2022/03/02 06:56:07;;;;;;;18.65;11.52;;;8.60;99.90;;;;;;5077308;28;20022;-76
2022/03/02 06:58:55;;;;;;;19.75;11.75;;;8.60;99.90;;;;;;5058583;28;20029;-76
2022/03/02 07:01:29;;;;;;;31.95;12.30;;;8.70;99.90;;;;;;5058862;28;20165;-75
2022/03/02 07:03:58;;;;;;;29.42;10.48;;;8.70;99.90;;;;;;5076907;28;20100;-75
2022/03/02 07:06:25;;;;;;;19.25;11.18;;;8.70;99.90;;;;;;5057966;28;20502;-76
2022/03/02 07:08:52;;;;;;;14.02;10.02;;;8.70;99.90;;;;;;5075244;28;20477;-75
2022/03/02 07:11:19;;;;;;;24.08;9.80;;;8.70;99.90;;;;;;5058680;28;20023;-75
2022/03/02 07:13:46;;;;;;;18.35;9.75;;;8.80;99.90;;;;;;5076620;28;20055;-76
2022/03/02 07:16:17;;;;;;;25.27;10.68;;;8.80;99.90;;;;;;5058827;28;20461;-75
2022/03/02 07:18:43;;;;;;;27.13;11.93;;;8.80;99.90;;;;;;5076532;28;20393;-76
2022/03/02 07:21:14;;;;;;;21.25;11.48;;;8.80;99.90;;;;;;5058236;28;20443;-76
2022/03/02 07:24:05;;;;;;;18.45;10.73;;;8.90;99.90;;;;;;5076348;28;20021;-76
2022/03/02 07:26:32;;;;;;;19.50;10.77;;;8.80;99.90;;;;;;5058269;28;20032;-76
2022/03/02 07:29:01;;;;;;;29.58;10.80;;;8.80;99.90;;;;;;5076455;28;20020;-76
2022/03/02 07:31:27;;;;;;;27.17;11.75;;;8.80;99.90;;;;;;5076512;28;20044;-76
2022/03/02 07:33:56;;;;;;;36.60;12.80;;;8.90;99.90;;;;;;5076414;28;20062;-76
2022/03/02 07:36:22;;;;;;;24.65;10.35;;;8.90;99.90;;;;;;5078864;28;20028;-76
2022/03/02 07:38:48;;;;;;;24.40;11.45;;;8.90;99.90;;;;;;5079696;28;20049;-76
2022/03/02 07:41:15;;;;;;;21.02;9.50;;;9.00;99.90;;;;;;5061977;28;20100;-75
2022/03/02 07:43:41;;;;;;;21.65;10.98;;;9.10;99.90;;;;;;5061810;28;20025;-75
2022/03/02 07:46:09;;;;;;;21.85;9.93;;;9.20;99.90;;;;;;5080095;28;20115;-75
2022/03/02 07:48:36;;;;;;;27.33;12.13;;;9.20;99.90;;;;;;5061995;28;20021;-75
2022/03/02 07:51:04;;;;;;;18.63;10.68;;;9.30;99.90;;;;;;5078378;28;20017;-75
2022/03/02 07:53:40;;;;;;;23.02;9.60;;;9.50;99.90;;;;;;5079744;28;20012;-76
2022/03/02 07:56:11;;;;;;;24.88;10.43;;;9.60;99.90;;;;;;5061705;28;20020;-75
2022/03/02 07:58:39;;;;;;;15.90;9.20;;;9.70;99.90;;;;;;5061923;28;20016;-75
2022/03/02 08:01:06;;;;;;;17.90;9.55;;;9.80;99.90;;;;;;5079544;28;20116;-76
2022/03/02 08:03:37;;;;;;;21.17;10.32;;;9.90;99.90;;;;;;5079871;28;20024;-76
2022/03/02 08:06:03;;;;;;;27.90;11.93;;;10.00;99.90;;;;;;5079428;28;20046;-76
2022/03/02 08:08:29;;;;;;;25.77;10.57;;;10.10;99.90;;;;;;5079378;28;20642;-75
2022/03/02 08:10:55;;;;;;;22.35;9.70;;;10.20;99.90;;;;;;5079179;28;20025;-76
2022/03/02 08:13:23;;;;;;;19.25;9.40;;;10.30;99.90;;;;;;5079378;28;20021;-75
2022/03/02 08:15:50;;;;;;;15.68;8.88;;;10.40;99.90;;;;;;5061622;28;20043;-76
2022/03/02 08:18:17;;;;;;;19.55;9.52;;;10.40;99.90;;;;;;5061048;28;20115;-76
2022/03/02 08:20:51;;;;;;;20.98;9.43;;;10.40;99.90;;;;;;5060954;28;20028;-75
2022/03/02 08:23:21;;;;;;;18.90;10.18;;;10.40;99.90;;;;;;5060688;28;20059;-77
2022/03/02 08:25:52;;;;;;;16.85;9.60;;;10.40;99.90;;;;;;5059602;28;20035;-76
2022/03/02 08:28:19;;;;;;;16.63;8.38;;;10.50;99.90;;;;;;5060627;28;20028;-76
2022/03/02 08:30:50;;;;;;;24.10;10.70;;;10.50;99.90;;;;;;5078909;28;20024;-76
2022/03/02 08:33:25;;;;;;;17.48;8.57;;;10.60;99.90;;;;;;5060173;28;20100;-77
2022/03/02 08:35:51;;;;;;;18.70;8.77;;;10.80;99.90;;;;;;5076483;28;20116;-77
2022/03/02 08:38:17;;;;;;;14.05;7.85;;;11.00;99.90;;;;;;5078133;28;20119;-77
2022/03/02 08:40:43;;;;;;;15.63;8.38;;;11.10;99.90;;;;;;5078385;28;20028;-77
2022/03/02 08:43:09;;;;;;;13.98;7.97;;;11.10;99.90;;;;;;5074813;28;20033;-77
2022/03/02 08:45:35;;;;;;;11.65;7.90;;;11.10;99.90;;;;;;5061521;28;20024;-77
2022/03/02 08:48:03;;;;;;;16.77;9.27;;;11.10;99.90;;;;;;5062441;28;20111;-76
2022/03/02 08:50:29;;;;;;;20.15;9.13;;;11.10;99.90;;;;;;5060530;28;20020;-77
2022/03/02 08:52:57;;;;;;;19.63;9.23;;;11.10;99.90;;;;;;5060515;28;20063;-77
2022/03/02 08:55:27;;;;;;;16.35;8.18;;;11.00;99.90;;;;;;5078564;28;20021;-76
2022/03/02 08:57:54;;;;;;;18.15;7.80;;;10.90;99.90;;;;;;5078343;28;20036;-77
2022/03/02 09:00:20;;;;;;;14.48;7.55;;;10.90;99.90;;;;;;5078690;28;20020;-77
2022/03/02 09:02:47;;;;;;;15.45;7.75;;;10.90;99.90;;;;;;5077372;28;20050;-77
2022/03/02 09:05:13;;;;;;;17.20;8.23;;;10.90;99.90;;;;;;5078588;28;20025;-77
2022/03/02 09:07:40;;;;;;;22.17;8.95;;;11.00;99.90;;;;;;5077860;28;20107;-77
2022/03/02 09:10:07;;;;;;;22.40;7.97;;;11.00;99.90;;;;;;5078346;28;20036;-77
2022/03/02 09:12:33;;;;;;;23.58;8.32;;;11.10;99.90;;;;;;5077194;28;20104;-76
2022/03/02 09:14:59;;;;;;;16.95;7.80;;;11.10;99.90;;;;;;5060251;28;20024;-77
2022/03/02 09:17:25;;;;;;;16.85;6.82;;;11.10;99.90;;;;;;5059564;28;20428;-77
2022/03/02 09:19:55;;;;;;;17.33;7.57;;;11.20;99.90;;;;;;5072297;28;20027;-77
2022/03/02 09:22:26;;;;;;;17.10;6.82;;;11.30;99.90;;;;;;5078079;28;20107;-76
2022/03/02 09:24:53;;;;;;;16.92;7.70;;;11.40;99.90;;;;;;5059044;28;20039;-77
2022/03/02 09:27:27;;;;;;;20.02;8.13;;;11.40;99.90;;;;;;5059708;28;20036;-76
2022/03/02 09:29:57;;;;;;;18.23;7.40;;;11.60;99.90;;;;;;5077972;28;20013;-77
2022/03/02 09:32:24;;;;;;;17.02;7.97;;;11.70;99.90;;;;;;5060104;28;20025;-77
2022/03/02 09:35:00;;;;;;;15.05;7.55;;;11.80;99.90;;;;;;5077095;28;20783;-77
2022/03/02 09:37:27;;;;;;;19.45;7.32;;;11.90;99.90;;;;;;5077721;28;20032;-77
2022/03/02 09:39:54;;;;;;;17.23;7.45;;;11.90;99.90;;;;;;5077426;28;20056;-80
2022/03/02 09:42:30;;;;;;;12.48;7.38;;;11.90;99.90;;;;;;5059297;28;20051;-77
2022/03/02 09:45:04;;;;;;;12.40;6.65;;;11.90;99.90;;;;;;5073122;28;20050;-75
2022/03/02 09:47:59;;;;;;;16.48;7.10;;;11.90;99.90;;;;;;5057541;28;20032;-77
2022/03/02 09:50:31;;;;;;;17.80;7.25;;;11.90;99.90;;;;;;5044763;28;20036;-79
2022/03/02 09:53:01;;;;;;;18.85;7.88;;;11.90;99.90;;;;;;5077129;28;20028;-78
2022/03/02 09:55:27;;;;;;;20.13;8.73;;;11.90;99.90;;;;;;5077259;28;20013;-78
2022/03/02 09:57:58;;;;;;;19.38;7.68;;;11.80;99.90;;;;;;5058478;28;20029;-78
2022/03/02 10:00:26;;;;;;;21.17;6.75;;;11.90;99.90;;;;;;5058615;28;20023;-75
2022/03/02 10:02:57;;;;;;;13.90;7.95;;;11.80;99.90;;;;;;5077137;28;20028;-75
2022/03/02 10:05:26;;;;;;;22.73;6.95;;;11.80;99.90;;;;;;5077473;28;20027;-76
2022/03/02 10:08:02;;;;;;;22.67;8.85;;;11.90;99.90;;;;;;5076633;28;20029;-75
2022/03/02 10:10:33;;;;;;;17.55;9.07;;;12.00;99.90;;;;;;5059088;28;20016;-75
2022/03/02 10:13:02;;;;;;;13.35;7.65;;;12.10;99.90;;;;;;5076176;28;20127;-76
2022/03/02 10:15:29;;;;;;;16.60;7.50;;;12.30;99.90;;;;;;5076434;28;20024;-75
2022/03/02 10:17:58;;;;;;;14.85;7.00;;;12.30;99.90;;;;;;5061579;28;20036;-75
2022/03/02 10:20:27;;;;;;;12.35;6.80;;;12.40;99.90;;;;;;5052867;28;20111;-75
2022/03/02 10:23:02;;;;;;;26.55;8.23;;;12.40;99.90;;;;;;5059170;28;20042;-75
2022/03/02 10:25:50;;;;;;;13.13;6.88;;;12.50;99.90;;;;;;5076256;28;20542;-75
2022/03/02 10:28:40;;;;;;;12.48;6.03;;;12.50;99.90;;;;;;5077033;28;20107;-75
2022/03/02 10:31:06;;;;;;;15.67;7.17;;;12.50;99.90;;;;;;5057591;28;20036;-76
2022/03/02 10:33:38;;;;;;;22.45;6.60;;;12.40;99.90;;;;;;5058850;28;20338;-75
2022/03/02 10:36:09;;;;;;;12.60;6.18;;;12.40;99.90;;;;;;5076904;28;20031;-76
2022/03/02 10:38:50;;;;;;;19.90;7.07;;;12.40;99.90;;;;;;5076573;28;20049;-76
2022/03/02 10:41:20;;;;;;;17.77;6.77;;;12.30;99.90;;;;;;5077163;28;20032;-75
2022/03/02 10:43:58;;;;;;;14.82;6.30;;;12.50;99.90;;;;;;5058910;28;20279;-75
2022/03/02 10:46:24;;;;;;;16.30;7.55;;;12.80;99.90;;;;;;5076722;28;20028;-76
2022/03/02 10:49:03;;;;;;;15.35;7.03;;;13.10;99.90;;;;;;5058870;28;20025;-76
2022/03/02 10:51:31;;;;;;;25.52;6.60;;;13.30;99.90;;;;;;5058033;28;20118;-75
2022/03/02 10:53:59;;;;;;;22.27;6.60;;;13.40;99.90;;;;;;5059255;28;20033;-76
2022/03/02 10:56:27;;;;;;;15.10;6.15;;;13.40;99.90;;;;;;5058563;28;20024;-76
2022/03/02 10:58:54;;;;;;;14.15;5.38;;;13.50;99.90;;;;;;5058743;28;20131;-75
2022/03/02 11:01:22;;;;;;;15.70;5.82;;;13.50;99.90;;;;;;5076662;28;20028;-75
2022/03/02 11:03:48;;;;;;;14.10;5.53;;;13.60;99.90;;;;;;5076785;28;20024;-76
2022/03/02 11:06:14;;;;;;;15.07;5.80;;;13.60;99.90;;;;;;5058088;28;20021;-75
2022/03/02 11:08:43;;;;;;;17.83;6.20;;;13.70;99.90;;;;;;5076822;28;20025;-75
2022/03/02 11:11:11;;;;;;;16.55;5.75;;;13.70;99.90;;;;;;5080824;28;20020;-75
2022/03/02 11:13:37;;;;;;;13.35;5.95;;;13.70;99.90;;;;;;5061907;28;20024;-75
2022/03/02 11:16:05;;;;;;;14.32;5.88;;;13.60;99.90;;;;;;5079390;28;20119;-76
2022/03/02 11:18:37;;;;;;;15.85;5.25;;;13.60;99.90;;;;;;5079307;28;20012;-75
2022/03/02 11:21:18;;;;;;;12.15;6.30;;;13.50;99.90;;;;;;5079038;28;20037;-76
2022/03/02 11:23:48;;;;;;;14.35;5.90;;;13.50;99.90;;;;;;5077332;28;20082;-75
2022/03/02 11:26:16;;;;;;;10.90;6.15;;;13.50;99.90;;;;;;5060539;28;20031;-76
2022/03/02 11:28:51;;;;;;;13.07;6.45;;;13.30;99.90;;;;;;5061260;28;20023;-75
2022/03/02 11:31:21;;;;;;;13.07;6.05;;;13.30;99.90;;;;;;5079581;28;20021;-75
2022/03/02 11:33:47;;;;;;;20.15;5.85;;;13.40;99.90;;;;;;5044460;28;20021;-76
2022/03/02 11:36:17;;;;;;;14.77;6.28;;;13.40;99.90;;;;;;5071486;28;20028;-75
2022/03/02 11:38:47;;;;;;;14.68;5.57;;;13.30;99.90;;;;;;5055210;28;20049;-75
2022/03/02 11:41:14;;;;;;;12.52;6.32;;;13.30;99.90;;;;;;5043604;28;20034;-75
2022/03/02 11:43:40;;;;;;;20.52;6.53;;;13.30;99.90;;;;;;5039829;28;20091;-76
2022/03/02 11:46:11;;;;;;;16.95;5.57;;;13.30;99.90;;;;;;5039907;28;20097;-75
2022/03/02 11:48:40;;;;;;;15.00;5.70;;;13.40;99.90;;;;;;5039484;28;20113;-75
2022/03/02 11:51:09;;;;;;;15.10;6.50;;;13.30;99.90;;;;;;5038384;28;20029;-75
2022/03/02 11:53:44;;;;;;;11.20;5.57;;;13.30;99.90;;;;;;5038866;28;20018;-75
2022/03/02 11:56:16;;;;;;;12.10;5.60;;;13.30;99.90;;;;;;5039752;28;20017;-74
2022/03/02 11:58:58;;;;;;;18.10;5.40;;;13.10;99.90;;;;;;5038237;28;20041;-74
2022/03/02 12:01:27;;;;;;;14.38;5.13;;;13.10;99.90;;;;;;5038555;28;20018;-75
2022/03/02 12:04:01;;;;;;;8.07;4.70;;;13.10;99.90;;;;;;5039691;28;20508;-73
2022/03/02 12:06:29;;;;;;;13.00;4.85;;;13.10;99.90;;;;;;5037997;28;20028;-74
2022/03/02 12:08:57;;;;;;;11.35;6.60;;;13.10;99.90;;;;;;5038127;28;20021;-74
2022/03/02 12:11:25;;;;;;;15.75;6.43;;;13.20;99.90;;;;;;5038287;28;20021;-76
2022/03/02 12:14:04;;;;;;;9.90;5.28;;;13.20;99.90;;;;;;5039525;28;20392;-76
2022/03/02 12:16:56;;;;;;;11.98;5.40;;;13.20;99.90;;;;;;5039484;28;20029;-76
2022/03/02 12:19:28;;;;;;;14.65;6.80;;;13.10;99.90;;;;;;5034506;28;20460;-76
2022/03/02 12:22:10;;;;;;;14.38;5.85;;;13.10;99.90;;;;;;5031128;28;20797;-76
2022/03/02 12:24:36;;;;;;;17.38;7.35;;;13.10;99.90;;;;;;5038239;28;20463;-76
2022/03/02 12:27:10;;;;;;;12.13;6.18;;;13.10;99.90;;;;;;5038894;28;20057;-76
2022/03/02 12:29:41;;;;;;;14.75;5.68;;;13.10;99.90;;;;;;5037791;28;20046;-75
2022/03/02 12:32:15;;;;;;;9.57;5.20;;;13.10;99.90;;;;;;5037403;28;20036;-75
2022/03/02 12:34:52;;;;;;;13.70;5.30;;;13.20;99.90;;;;;;5038188;28;20072;-76
2022/03/02 12:37:21;;;;;;;11.90;5.47;;;13.40;99.90;;;;;;5037119;28;20045;-75
2022/03/02 12:39:48;;;;;;;11.43;4.93;;;13.60;99.90;;;;;;5075019;28;20082;-75
2022/03/02 12:42:16;;;;;;;11.00;5.75;;;13.70;99.90;;;;;;5060332;28;20060;-75
2022/03/02 12:44:48;;;;;;;13.27;6.80;;;13.90;99.90;;;;;;5078076;28;20024;-75